createdAt,value
2023-01-03T00:03:38.874Z,11.17
2023-01-03T00:07:57.975Z,11.17
2023-01-03T00:12:30.563Z,11.15
2023-01-03T00:16:53.303Z,11.17
2023-01-03T00:21:10.846Z,11.13
2023-01-03T00:25:29.763Z,11.14
2023-01-03T00:29:48.497Z,11.13
2023-01-03T00:34:07.019Z,11.14
2023-01-03T00:38:24.626Z,11.13
2023-01-03T00:43:00.940Z,11.12
2023-01-03T00:47:18.641Z,11.12
2023-01-03T00:51:39.082Z,11.09
2023-01-03T00:56:04.272Z,11.06
2023-01-03T01:00:21.893Z,11.10
2023-01-03T01:04:39.658Z,11.10
2023-01-03T01:08:59.780Z,11.11
2023-01-03T01:13:17.363Z,11.09
2023-01-03T01:17:34.946Z,11.10
2023-01-03T01:21:53.199Z,11.09
2023-01-03T01:26:19.071Z,11.08
2023-01-03T01:30:38.511Z,11.06
2023-01-03T01:34:56.262Z,11.06
2023-01-03T01:39:23.811Z,11.06
2023-01-03T01:44:16.795Z,11.07
2023-01-03T01:48:34.557Z,11.06
2023-01-03T01:53:01.488Z,11.06
2023-01-03T01:57:22.676Z,11.06
2023-01-03T02:01:43.441Z,11.09
2023-01-03T02:06:04.893Z,11.11
2023-01-03T02:11:02.112Z,11.09
2023-01-03T02:16:06.927Z,11.08
2023-01-03T02:20:47.414Z,11.07
2023-01-03T02:25:13.606Z,11.07
2023-01-03T02:30:12.653Z,11.09
2023-01-03T02:35:13.489Z,11.08
2023-01-03T02:39:57.283Z,11.08
2023-01-03T02:44:27.997Z,11.08
2023-01-03T02:49:08.452Z,11.09
2023-01-03T02:53:39.597Z,11.11
2023-01-03T02:58:21.339Z,11.11
2023-01-03T03:02:46.180Z,11.11
2023-01-03T03:07:32.206Z,11.14
2023-01-03T03:12:20.063Z,11.12
2023-01-03T03:16:49.669Z,11.11
2023-01-03T03:21:29.849Z,11.15
2023-01-03T03:25:59.732Z,11.13
2023-01-03T03:30:21.849Z,11.13
2023-01-03T03:34:40.053Z,11.12
2023-01-03T03:38:57.947Z,11.09
2023-01-03T03:43:46.727Z,11.08
2023-01-03T03:48:30.180Z,11.16
2023-01-03T03:52:53.246Z,11.10
2023-01-03T03:57:23.284Z,11.09
2023-01-03T04:01:42.823Z,11.17
2023-01-03T04:06:06.480Z,11.06
2023-01-03T04:10:24.486Z,11.13
2023-01-03T04:14:43.010Z,11.13
2023-01-03T04:19:00.624Z,11.12
2023-01-03T04:23:18.344Z,11.15
2023-01-03T04:27:36.509Z,11.09
2023-01-03T04:31:54.123Z,11.08
2023-01-03T04:36:11.708Z,11.09
2023-01-03T04:40:29.095Z,11.12
2023-01-03T04:44:46.603Z,11.11
2023-01-03T04:49:07.026Z,11.11
2023-01-03T04:53:26.538Z,11.12
2023-01-03T04:57:43.819Z,11.09
2023-01-03T05:02:02.247Z,11.10
2023-01-03T05:06:20.378Z,11.04
2023-01-03T05:10:41.639Z,11.04
2023-01-03T05:14:59.433Z,11.10
2023-01-03T05:19:17.139Z,11.10
2023-01-03T05:23:53.666Z,11.06
2023-01-03T05:28:15.391Z,11.10
2023-01-03T05:32:35.116Z,11.08
2023-01-03T05:36:52.613Z,11.07
2023-01-03T05:41:10.468Z,11.06
2023-01-03T05:45:28.102Z,11.09
2023-01-03T05:49:45.478Z,11.02
2023-01-03T05:54:03.176Z,11.07
2023-01-03T05:58:20.635Z,11.10
2023-01-03T06:02:38.194Z,11.01
2023-01-03T06:06:55.742Z,11.00
2023-01-03T06:11:15.501Z,11.09
2023-01-03T06:15:34.174Z,11.00
2023-01-03T06:19:51.802Z,11.07
2023-01-03T06:24:09.975Z,11.08
2023-01-03T06:28:27.299Z,11.06
2023-01-03T06:32:45.043Z,10.98
2023-01-03T06:37:02.647Z,11.00
2023-01-03T06:41:20.213Z,11.02
2023-01-03T06:45:56.423Z,11.05
2023-01-03T06:50:32.893Z,11.00
2023-01-03T06:54:50.167Z,11.06
2023-01-03T06:59:08.127Z,11.02
2023-01-03T07:03:25.628Z,11.01
2023-01-03T07:07:43.522Z,11.07
2023-01-03T07:12:20.990Z,11.08
2023-01-03T07:16:44.625Z,11.04
2023-01-03T07:21:06.952Z,11.09
2023-01-03T07:25:24.885Z,11.05
2023-01-03T07:29:42.356Z,11.05
2023-01-03T07:34:01.554Z,10.92
2023-01-03T07:38:19.226Z,11.02
2023-01-03T07:42:55.406Z,11.02
2023-01-03T07:47:12.932Z,11.01
2023-01-03T07:51:30.392Z,10.94
2023-01-03T07:55:48.030Z,11.01
2023-01-03T08:00:06.427Z,10.95
2023-01-03T08:04:23.636Z,11.04
2023-01-03T08:08:42.036Z,11.09
2023-01-03T08:13:17.666Z,11.15
2023-01-03T08:17:36.323Z,11.18
2023-01-03T08:21:53.978Z,11.21
2023-01-03T08:26:15.657Z,11.38
2023-01-03T08:30:36.250Z,11.46
2023-01-03T08:34:54.732Z,11.30
2023-01-03T08:39:18.879Z,11.39
2023-01-03T08:43:41.013Z,11.51
2023-01-03T08:48:01.800Z,11.30
2023-01-03T08:52:19.324Z,11.27
2023-01-03T08:56:37.039Z,11.28
2023-01-03T09:00:54.458Z,11.35
2023-01-03T09:05:12.124Z,11.36
2023-01-03T09:09:29.303Z,11.43
2023-01-03T09:13:47.022Z,11.41
2023-01-03T09:18:04.579Z,11.50
2023-01-03T09:22:22.106Z,11.45
2023-01-03T09:26:39.992Z,11.42
2023-01-03T09:30:57.686Z,11.40
2023-01-03T09:35:15.455Z,11.42
2023-01-03T09:39:33.391Z,11.45
2023-01-03T09:44:02.541Z,11.53
2023-01-03T09:48:34.078Z,11.57
2023-01-03T09:53:10.851Z,11.71
2023-01-03T09:57:50.321Z,11.69
2023-01-03T10:03:00.904Z,11.71
2023-01-03T10:07:49.433Z,11.65
2023-01-03T10:12:25.574Z,11.56
2023-01-03T10:17:11.553Z,11.54
2023-01-03T10:21:28.989Z,11.61
2023-01-03T10:25:48.695Z,11.58
2023-01-03T10:30:12.346Z,11.80
2023-01-03T10:34:29.731Z,11.65
2023-01-03T10:38:52.791Z,11.64
2023-01-03T10:43:39.235Z,11.57
2023-01-03T10:48:02.002Z,11.59
2023-01-03T10:52:23.051Z,11.69
2023-01-03T10:56:40.562Z,11.84
2023-01-03T11:01:24.650Z,11.82
2023-01-03T11:05:49.556Z,11.92
2023-01-03T11:10:17.848Z,11.86
2023-01-03T11:14:35.430Z,11.78
2023-01-03T11:19:04.572Z,12.01
2023-01-03T11:23:54.788Z,11.91
2023-01-03T11:29:23.214Z,11.90
2023-01-03T11:34:02.961Z,12.19
2023-01-03T11:38:59.009Z,12.42
2023-01-03T11:43:57.791Z,12.25
2023-01-03T11:48:32.491Z,12.09
2023-01-03T11:53:10.944Z,11.81
2023-01-03T11:57:59.186Z,11.61
2023-01-03T12:02:44.461Z,11.57
2023-01-03T12:12:56.243Z,11.61
2023-01-03T12:17:24.528Z,11.90
2023-01-03T12:21:48.286Z,11.85
2023-01-03T12:26:10.485Z,11.51
2023-01-03T12:31:09.714Z,11.46
2023-01-03T12:35:59.931Z,11.26
2023-01-03T12:40:52.475Z,11.22
2023-01-03T12:45:28.407Z,11.35
2023-01-03T12:50:14.901Z,12.36
2023-01-03T12:54:51.007Z,12.07
2023-01-03T12:59:29.748Z,11.75
2023-01-03T13:03:55.568Z,12.56
2023-01-03T13:08:39.683Z,11.96
2023-01-03T13:12:57.487Z,11.92
2023-01-03T13:17:20.074Z,11.80
2023-01-03T13:21:49.575Z,11.74
2023-01-03T13:26:21.195Z,11.74
2023-01-03T13:30:38.900Z,11.67
2023-01-03T13:34:59.235Z,11.52
2023-01-03T13:39:51.539Z,11.41
2023-01-03T13:44:23.446Z,11.28
2023-01-03T13:48:50.903Z,11.24
2023-01-03T13:53:11.175Z,11.23
2023-01-03T13:57:38.057Z,11.27
2023-01-03T14:02:11.733Z,11.21
2023-01-03T14:07:13.141Z,11.20
2023-01-03T14:12:15.931Z,11.19
2023-01-03T14:16:48.704Z,11.12
2023-01-03T14:21:14.741Z,11.10
2023-01-03T14:25:45.606Z,11.09
2023-01-03T14:30:04.360Z,11.12
2023-01-03T14:34:40.371Z,11.08
2023-01-03T14:39:02.427Z,11.08
2023-01-03T14:43:21.725Z,11.04
2023-01-03T14:47:42.188Z,11.09
2023-01-03T14:52:28.795Z,11.12
2023-01-03T14:56:47.531Z,11.12
2023-01-03T15:01:08.372Z,11.10
2023-01-03T15:05:41.154Z,11.09
2023-01-03T15:10:46.338Z,11.19
2023-01-03T15:15:29.639Z,11.33
2023-01-03T15:19:55.047Z,11.17
2023-01-03T15:24:21.500Z,11.00
2023-01-03T15:28:54.941Z,10.99
2023-01-03T15:33:33.199Z,10.96
2023-01-03T15:37:55.552Z,10.91
2023-01-03T15:42:46.829Z,10.86
2023-01-03T15:47:08.716Z,10.86
2023-01-03T15:51:26.267Z,10.84
2023-01-03T15:55:43.850Z,10.77
2023-01-03T16:00:07.211Z,10.79
2023-01-03T16:04:25.459Z,10.72
2023-01-03T16:08:44.110Z,10.72
2023-01-03T16:13:01.653Z,10.68
2023-01-03T16:17:26.407Z,10.74
2023-01-03T16:22:02.550Z,10.66
2023-01-03T16:26:22.698Z,10.68
2023-01-03T16:30:39.923Z,10.65
2023-01-03T16:35:01.473Z,10.66
2023-01-03T16:39:27.049Z,10.61
2023-01-03T16:43:44.708Z,10.67
2023-01-03T16:48:02.295Z,10.70
2023-01-03T16:52:27.383Z,10.77
2023-01-03T16:56:45.733Z,10.65
2023-01-03T17:01:04.384Z,10.78
2023-01-03T17:05:22.581Z,10.77
2023-01-03T17:09:40.763Z,10.75
2023-01-03T17:14:03.539Z,10.74
2023-01-03T17:18:31.753Z,10.76
2023-01-03T17:22:56.649Z,10.72
2023-01-03T17:27:31.904Z,10.68
2023-01-03T17:31:50.785Z,10.67
2023-01-03T17:36:28.412Z,10.69
2023-01-03T17:40:48.806Z,10.66
2023-01-03T17:45:29.079Z,10.65
2023-01-03T17:49:46.848Z,10.63
2023-01-03T17:54:04.601Z,10.65
2023-01-03T17:58:32.508Z,10.66
2023-01-03T18:02:51.343Z,10.62
2023-01-03T18:07:10.047Z,10.58
2023-01-03T18:11:27.621Z,10.61
2023-01-03T18:15:45.350Z,10.64
2023-01-03T18:20:02.572Z,10.62
2023-01-03T18:24:28.861Z,10.65
2023-01-03T18:28:46.489Z,10.62
2023-01-03T18:33:03.908Z,10.60
2023-01-03T18:37:24.706Z,10.58
2023-01-03T18:41:43.667Z,10.58
2023-01-03T18:46:01.220Z,10.60
2023-01-03T18:50:20.289Z,10.60
2023-01-03T18:54:39.188Z,10.60
2023-01-03T18:59:02.339Z,10.59
2023-01-03T19:03:24.076Z,10.56
2023-01-03T19:07:47.669Z,10.57
2023-01-03T19:12:07.422Z,10.54
2023-01-03T19:16:32.108Z,10.54
2023-01-03T19:20:50.332Z,10.56
2023-01-03T19:25:13.409Z,10.56
2023-01-03T19:29:39.759Z,10.52
2023-01-03T19:33:57.283Z,10.54
2023-01-03T19:38:14.845Z,10.52
2023-01-03T19:42:47.506Z,10.57
2023-01-03T19:47:09.657Z,10.53
2023-01-03T19:51:27.038Z,10.47
2023-01-03T19:55:47.086Z,10.50
2023-01-03T20:00:05.412Z,10.52
2023-01-03T20:04:23.767Z,10.48
2023-01-03T20:08:41.318Z,10.49
2023-01-03T20:13:00.410Z,10.48
2023-01-03T20:17:25.096Z,10.50
2023-01-03T20:21:43.004Z,10.45
2023-01-03T20:26:02.464Z,10.48
2023-01-03T20:30:22.756Z,10.47
2023-01-03T20:34:40.565Z,10.44
2023-01-03T20:38:58.325Z,10.43
2023-01-03T20:43:17.678Z,10.40
2023-01-03T20:47:35.721Z,10.36
2023-01-03T20:51:54.208Z,10.37
2023-01-03T20:56:13.553Z,10.37
2023-01-03T21:00:35.180Z,10.36
2023-01-03T21:04:53.129Z,10.29
2023-01-03T21:09:14.531Z,10.32
2023-01-03T21:13:32.359Z,10.28
2023-01-03T21:17:51.257Z,10.27
2023-01-03T21:22:20.415Z,10.23
2023-01-03T21:26:38.194Z,10.21
2023-01-03T21:31:01.310Z,10.20
2023-01-03T21:35:24.628Z,10.17
2023-01-03T21:39:42.192Z,10.18
2023-01-03T21:44:13.176Z,10.16
2023-01-03T21:48:30.371Z,10.16
2023-01-03T21:52:48.046Z,10.15
2023-01-03T21:57:05.463Z,10.11
2023-01-03T22:01:24.376Z,10.09
2023-01-03T22:05:41.818Z,10.05
2023-01-03T22:10:19.030Z,10.02
2023-01-03T22:14:37.172Z,10.04
2023-01-03T22:18:54.277Z,10.00
2023-01-03T22:23:12.549Z,10.03
2023-01-03T22:27:30.045Z,10.02
2023-01-03T22:31:49.118Z,10.02
2023-01-03T22:36:08.335Z,10.01
2023-01-03T22:40:26.018Z,9.98
2023-01-03T22:44:43.709Z,10.00
2023-01-03T22:49:01.372Z,9.97
2023-01-03T22:53:19.097Z,9.94
2023-01-03T22:57:36.584Z,9.95
2023-01-03T23:01:54.329Z,9.94
2023-01-03T23:06:18.365Z,9.96
2023-01-03T23:10:36.060Z,9.89
2023-01-03T23:14:53.736Z,9.95
2023-01-03T23:19:15.833Z,9.92
2023-01-03T23:23:33.217Z,9.97
2023-01-03T23:27:50.764Z,9.96
2023-01-03T23:32:09.347Z,9.92
2023-01-03T23:36:28.305Z,9.91
2023-01-03T23:40:45.682Z,9.92
2023-01-03T23:45:04.599Z,9.91
2023-01-03T23:49:22.154Z,9.93
2023-01-03T23:53:42.804Z,9.88
2023-01-03T23:58:00.002Z,9.91
